createdAt,value
2019-02-19T00:00:12.426Z,30.07
2019-02-19T00:02:41.026Z,28.30
2019-02-19T00:05:09.531Z,28.63
2019-02-19T00:07:38.031Z,26.83
2019-02-19T00:10:07.370Z,26.57
2019-02-19T00:12:35.888Z,26.33
2019-02-19T00:15:14.044Z,27.57
2019-02-19T00:17:41.474Z,29.23
2019-02-19T00:20:09.960Z,29.90
2019-02-19T00:22:38.479Z,29.70
2019-02-19T00:25:07.233Z,30.37
2019-02-19T00:27:35.750Z,26.37
2019-02-19T00:30:05.101Z,28.17
2019-02-19T00:32:33.615Z,27.67
2019-02-19T00:35:02.097Z,27.77
2019-02-19T00:37:30.614Z,30.57
2019-02-19T00:39:59.182Z,27.30
2019-02-19T00:42:27.716Z,31.27
2019-02-19T00:44:56.186Z,26.93
2019-02-19T00:47:24.707Z,27.13
2019-02-19T00:49:53.193Z,27.00
2019-02-19T00:52:21.677Z,29.37
2019-02-19T00:54:50.212Z,25.97
2019-02-19T00:57:18.707Z,26.70
2019-02-19T00:59:47.206Z,29.83
2019-02-19T01:02:15.699Z,27.23
2019-02-19T01:04:44.215Z,27.97
2019-02-19T01:07:12.710Z,31.67
2019-02-19T01:09:41.234Z,28.93
2019-02-19T01:12:09.729Z,30.20
2019-02-19T01:14:38.232Z,25.83
2019-02-19T01:17:06.740Z,31.27
2019-02-19T01:19:35.238Z,28.83
2019-02-19T01:22:03.719Z,26.60
2019-02-19T01:24:32.202Z,28.87
2019-02-19T01:27:00.692Z,26.57
2019-02-19T01:29:29.168Z,27.00
2019-02-19T01:31:57.657Z,27.93
2019-02-19T01:34:26.165Z,26.37
2019-02-19T01:36:54.625Z,32.47
2019-02-19T01:39:23.126Z,25.60
2019-02-19T01:41:51.593Z,24.20
2019-02-19T01:44:20.089Z,28.83
2019-02-19T01:46:48.553Z,28.70
2019-02-19T01:49:17.057Z,29.77
2019-02-19T01:51:45.557Z,27.17
2019-02-19T01:54:14.044Z,26.83
2019-02-19T01:56:42.519Z,25.30
2019-02-19T01:59:11.006Z,25.83
2019-02-19T02:01:39.469Z,26.30
2019-02-19T02:04:07.964Z,24.97
2019-02-19T02:06:36.424Z,27.43
2019-02-19T02:09:05.480Z,28.40
2019-02-19T02:11:33.959Z,27.00
2019-02-19T02:14:02.452Z,29.13
2019-02-19T02:16:30.931Z,27.17
2019-02-19T02:18:59.421Z,26.53
2019-02-19T02:21:27.891Z,27.77
2019-02-19T02:23:56.385Z,26.80
2019-02-19T02:26:24.862Z,27.30
2019-02-19T02:28:53.348Z,23.50
2019-02-19T02:31:21.826Z,27.30
2019-02-19T02:33:50.315Z,27.67
2019-02-19T02:36:18.807Z,27.10
2019-02-19T02:38:50.143Z,26.70
2019-02-19T02:41:18.624Z,27.17
2019-02-19T02:43:47.132Z,27.10
2019-02-19T02:46:15.601Z,27.73
2019-02-19T02:48:44.096Z,27.63
2019-02-19T02:51:12.581Z,26.17
2019-02-19T02:53:41.058Z,22.13
2019-02-19T02:56:09.546Z,26.50
2019-02-19T02:58:38.051Z,29.30
2019-02-19T03:01:06.504Z,25.80
2019-02-19T03:03:34.995Z,25.53
2019-02-19T03:06:10.637Z,26.37
2019-02-19T03:08:39.118Z,31.17
2019-02-19T03:11:07.677Z,26.23
2019-02-19T03:13:36.149Z,27.23
2019-02-19T03:16:04.668Z,27.73
2019-02-19T03:18:33.144Z,26.13
2019-02-19T03:21:01.631Z,28.80
2019-02-19T03:23:30.109Z,28.47
2019-02-19T03:25:58.593Z,27.10
2019-02-19T03:28:27.053Z,27.07
2019-02-19T03:30:55.557Z,31.80
2019-02-19T03:33:24.040Z,30.13
2019-02-19T03:35:52.517Z,31.17
2019-02-19T03:38:21.000Z,23.63
2019-02-19T03:40:49.506Z,24.00
2019-02-19T03:43:17.993Z,26.73
2019-02-19T03:45:46.497Z,26.37
2019-02-19T03:48:14.980Z,26.43
2019-02-19T03:50:43.488Z,29.00
2019-02-19T03:53:11.961Z,26.87
2019-02-19T03:55:40.528Z,29.33
2019-02-19T03:58:09.080Z,27.17
2019-02-19T04:00:37.663Z,25.93
2019-02-19T04:03:06.145Z,28.70
2019-02-19T04:05:34.731Z,29.43
2019-02-19T04:08:03.212Z,31.33
2019-02-19T04:10:31.774Z,26.80
2019-02-19T04:13:00.324Z,25.77
2019-02-19T04:15:28.908Z,28.37
2019-02-19T04:17:57.400Z,29.23
2019-02-19T04:20:25.884Z,28.50
2019-02-19T04:22:54.362Z,27.80
2019-02-19T04:25:22.885Z,27.97
2019-02-19T04:27:51.361Z,29.33
2019-02-19T04:30:19.867Z,29.27
2019-02-19T04:32:48.375Z,28.83
2019-02-19T04:35:16.878Z,29.07
2019-02-19T04:37:45.348Z,27.73
2019-02-19T04:40:13.839Z,29.47
2019-02-19T04:42:42.324Z,28.00
2019-02-19T04:45:10.844Z,27.97
2019-02-19T04:47:39.289Z,27.43
2019-02-19T04:50:08.845Z,25.27
2019-02-19T04:52:37.338Z,25.27
2019-02-19T04:55:06.759Z,29.40
2019-02-19T04:57:35.259Z,25.83
2019-02-19T05:00:04.858Z,27.07
2019-02-19T05:02:33.340Z,27.03
2019-02-19T05:05:01.839Z,29.57
2019-02-19T05:07:30.305Z,29.57
2019-02-19T05:09:58.784Z,26.00
2019-02-19T05:12:27.307Z,25.73
2019-02-19T05:14:55.793Z,26.73
2019-02-19T05:17:24.302Z,24.13
2019-02-19T05:19:52.783Z,27.70
2019-02-19T05:22:21.303Z,28.93
2019-02-19T05:24:49.782Z,25.60
2019-02-19T05:27:18.276Z,28.77
2019-02-19T05:29:46.740Z,25.27
2019-02-19T05:32:15.240Z,32.63
2019-02-19T05:34:43.705Z,26.43
2019-02-19T05:37:12.222Z,25.30
2019-02-19T05:39:40.681Z,29.13
2019-02-19T05:42:09.268Z,25.53
2019-02-19T05:44:37.745Z,26.07
2019-02-19T05:47:06.253Z,33.03
2019-02-19T05:49:34.733Z,27.57
2019-02-19T05:52:03.234Z,27.80
2019-02-19T05:54:31.823Z,26.93
2019-02-19T05:57:00.332Z,30.00
2019-02-19T05:59:28.819Z,28.53
2019-02-19T06:01:57.312Z,27.73
2019-02-19T06:04:25.799Z,26.70
2019-02-19T06:06:54.280Z,25.70
2019-02-19T06:09:22.790Z,22.97
2019-02-19T06:11:51.297Z,25.53
2019-02-19T06:14:19.825Z,24.07
2019-02-19T06:16:48.333Z,25.03
2019-02-19T06:19:16.823Z,25.23
2019-02-19T06:21:45.321Z,25.03
2019-02-19T06:24:13.807Z,25.50
2019-02-19T06:26:42.317Z,32.70
2019-02-19T06:29:10.782Z,27.43
2019-02-19T06:31:39.290Z,23.63
2019-02-19T06:34:07.769Z,23.53
2019-02-19T06:36:36.277Z,24.47
2019-02-19T06:39:05.549Z,23.40
2019-02-19T06:41:34.042Z,24.90
2019-02-19T06:44:02.560Z,28.33
2019-02-19T06:46:31.003Z,26.23
2019-02-19T06:48:59.505Z,23.30
2019-02-19T06:51:27.968Z,23.80
2019-02-19T06:53:56.501Z,24.50
2019-02-19T06:56:24.981Z,23.97
2019-02-19T06:58:53.471Z,22.27
2019-02-19T07:01:23.588Z,23.97
2019-02-19T07:03:59.654Z,23.93
2019-02-19T07:06:28.162Z,23.10
2019-02-19T07:08:56.639Z,23.20
2019-02-19T07:11:25.148Z,23.47
2019-02-19T07:13:53.653Z,23.07
2019-02-19T07:16:22.114Z,22.37
2019-02-19T07:18:50.614Z,20.73
2019-02-19T07:21:19.066Z,23.40
2019-02-19T07:23:47.577Z,28.43
2019-02-19T07:26:16.037Z,25.27
2019-02-19T07:28:44.518Z,22.80
2019-02-19T07:31:13.004Z,20.43
2019-02-19T07:33:41.506Z,25.80
2019-02-19T07:36:09.972Z,24.27
2019-02-19T07:38:38.476Z,22.50
2019-02-19T07:41:06.932Z,21.47
2019-02-19T07:43:35.441Z,22.30
2019-02-19T07:46:03.922Z,21.90
2019-02-19T07:48:32.417Z,20.00
2019-02-19T07:51:00.923Z,23.90
2019-02-19T07:53:29.380Z,23.43
2019-02-19T07:55:57.847Z,19.37
2019-02-19T07:58:26.329Z,22.40
2019-02-19T08:00:54.806Z,25.13
2019-02-19T08:03:23.291Z,18.53
2019-02-19T08:05:51.767Z,21.40
2019-02-19T08:08:20.253Z,17.37
2019-02-19T08:10:48.731Z,20.37
2019-02-19T08:13:17.224Z,20.30
2019-02-19T08:15:45.696Z,20.33
2019-02-19T08:18:14.174Z,18.63
2019-02-19T08:20:42.689Z,20.13
2019-02-19T08:23:11.168Z,20.63
2019-02-19T08:25:39.654Z,23.47
2019-02-19T08:28:08.139Z,21.43
2019-02-19T08:30:36.652Z,20.10
2019-02-19T08:33:05.125Z,19.33
2019-02-19T08:35:33.686Z,21.40
2019-02-19T08:38:02.166Z,19.80
2019-02-19T08:40:30.746Z,16.23
2019-02-19T08:42:59.221Z,17.90
2019-02-19T08:45:27.715Z,17.47
2019-02-19T08:47:56.194Z,22.17
2019-02-19T08:50:24.692Z,20.83
2019-02-19T08:52:53.163Z,20.90
2019-02-19T08:55:21.657Z,18.27
2019-02-19T08:57:50.117Z,19.17
2019-02-19T09:00:18.607Z,21.90
2019-02-19T09:02:47.087Z,22.43
2019-02-19T09:05:15.585Z,21.17
2019-02-19T09:07:44.071Z,22.93
2019-02-19T09:10:13.107Z,22.10
2019-02-19T09:12:41.576Z,23.20
2019-02-19T09:15:11.609Z,21.70
2019-02-19T09:17:40.065Z,22.80
2019-02-19T09:20:09.821Z,20.67
2019-02-19T09:22:38.302Z,23.70
2019-02-19T09:25:08.671Z,23.43
2019-02-19T09:27:37.176Z,24.50
2019-02-19T09:30:11.647Z,27.83
2019-02-19T09:32:40.179Z,21.97
2019-02-19T09:35:09.810Z,22.73
2019-02-19T09:37:38.298Z,26.27
2019-02-19T09:40:09.355Z,22.93
2019-02-19T09:42:37.843Z,22.97
2019-02-19T09:45:08.892Z,24.03
2019-02-19T09:47:37.389Z,25.50
2019-02-19T09:50:09.130Z,25.23
2019-02-19T09:52:37.611Z,24.63
2019-02-19T09:55:07.247Z,27.80
2019-02-19T09:57:35.741Z,24.33
2019-02-19T10:00:07.224Z,24.97
2019-02-19T10:02:35.703Z,27.77
2019-02-19T10:05:05.340Z,28.13
2019-02-19T10:07:33.824Z,25.83
2019-02-19T10:10:02.329Z,27.20
2019-02-19T10:12:30.816Z,40.63
2019-02-19T10:14:59.307Z,27.20
2019-02-19T10:17:27.780Z,25.53
2019-02-19T10:19:56.269Z,29.00
2019-02-19T10:22:24.749Z,28.83
2019-02-19T10:24:53.233Z,31.00
2019-02-19T10:27:21.711Z,26.73
2019-02-19T10:29:50.239Z,28.90
2019-02-19T10:32:18.688Z,31.73
2019-02-19T10:34:47.195Z,32.17
2019-02-19T10:37:15.734Z,32.67
2019-02-19T10:39:44.225Z,30.93
2019-02-19T10:42:12.702Z,28.90
2019-02-19T10:44:41.203Z,30.90
2019-02-19T10:47:09.738Z,34.10
2019-02-19T10:49:38.211Z,30.43
2019-02-19T10:52:06.717Z,30.07
2019-02-19T10:54:38.735Z,27.23
2019-02-19T10:57:07.217Z,28.57
2019-02-19T10:59:35.714Z,30.90
2019-02-19T11:02:04.216Z,31.93
2019-02-19T11:04:32.688Z,31.23
2019-02-19T11:07:01.173Z,30.57
2019-02-19T11:09:29.682Z,32.30
2019-02-19T11:11:58.197Z,27.97
2019-02-19T11:14:26.665Z,28.67
2019-02-19T11:16:55.136Z,25.67
2019-02-19T11:19:23.628Z,29.10
2019-02-19T11:21:52.171Z,28.57
2019-02-19T11:24:20.669Z,26.93
2019-02-19T11:26:49.144Z,27.83
2019-02-19T11:29:17.627Z,29.13
2019-02-19T11:31:46.127Z,29.33
2019-02-19T11:34:14.608Z,29.37
2019-02-19T11:36:43.097Z,28.67
2019-02-19T11:39:12.217Z,26.63
2019-02-19T11:41:40.703Z,23.70
2019-02-19T11:44:09.181Z,26.53
2019-02-19T11:46:37.683Z,22.43
2019-02-19T11:49:06.177Z,23.93
2019-02-19T11:51:34.696Z,23.73
2019-02-19T11:54:03.165Z,23.33
2019-02-19T11:56:31.655Z,23.60
2019-02-19T11:59:00.140Z,24.97
2019-02-19T12:01:28.653Z,19.33
2019-02-19T12:03:57.104Z,25.90
2019-02-19T12:06:25.650Z,27.20
2019-02-19T12:08:54.136Z,21.50
2019-02-19T12:11:22.646Z,23.70
2019-02-19T12:13:51.127Z,26.30
2019-02-19T12:16:19.635Z,30.43
2019-02-19T12:18:48.090Z,24.47
2019-02-19T12:21:16.575Z,26.57
2019-02-19T12:23:45.057Z,22.90
2019-02-19T12:26:13.573Z,27.47
2019-02-19T12:28:42.058Z,21.07
2019-02-19T12:31:10.567Z,23.73
2019-02-19T12:33:39.039Z,20.30
2019-02-19T12:36:07.537Z,23.93
2019-02-19T12:38:36.024Z,23.30
2019-02-19T12:41:04.520Z,25.10
2019-02-19T12:43:33.004Z,22.50
2019-02-19T12:46:01.500Z,22.37
2019-02-19T12:48:29.983Z,24.40
2019-02-19T12:50:58.492Z,22.03
2019-02-19T12:53:26.979Z,21.27
2019-02-19T12:55:55.502Z,24.43
2019-02-19T12:58:23.965Z,21.17
2019-02-19T13:00:52.473Z,26.17
2019-02-19T13:03:21.314Z,26.93
2019-02-19T13:05:50.675Z,22.97
2019-02-19T13:08:19.155Z,27.20
2019-02-19T13:10:47.651Z,26.90
2019-02-19T13:13:16.132Z,25.97
2019-02-19T13:15:44.660Z,24.77
2019-02-19T13:18:13.150Z,29.57
2019-02-19T13:20:41.644Z,27.40
2019-02-19T13:23:10.157Z,28.13
2019-02-19T13:25:38.669Z,30.33
2019-02-19T13:28:07.150Z,25.83
2019-02-19T13:30:35.641Z,24.03
2019-02-19T13:33:06.331Z,21.17
2019-02-19T13:35:34.831Z,20.10
2019-02-19T13:38:03.309Z,20.10
2019-02-19T13:40:31.813Z,19.53
2019-02-19T13:43:00.296Z,18.83
2019-02-19T13:45:28.813Z,18.93
2019-02-19T13:48:05.501Z,20.03
2019-02-19T13:50:30.552Z,18.67
2019-02-19T13:53:03.625Z,17.87
2019-02-19T13:55:33.768Z,17.47
2019-02-19T13:58:02.244Z,17.20
2019-02-19T14:00:32.464Z,15.50
2019-02-19T14:03:00.971Z,15.07
2019-02-19T14:05:29.468Z,19.87
2019-02-19T14:07:57.944Z,15.10
2019-02-19T14:10:26.436Z,16.43
2019-02-19T14:12:54.935Z,16.53
2019-02-19T14:15:40.150Z,18.10
2019-02-19T14:18:10.267Z,17.07
2019-02-19T14:20:46.198Z,16.20
2019-02-19T14:23:22.357Z,14.73
2019-02-19T14:26:10.872Z,17.50
2019-02-19T14:28:43.803Z,16.83
2019-02-19T14:31:31.834Z,17.10
2019-02-19T14:34:07.685Z,17.27
2019-02-19T14:36:53.737Z,17.07
2019-02-19T14:39:29.943Z,15.63
2019-02-19T14:42:02.828Z,16.57
2019-02-19T14:44:47.984Z,13.87
2019-02-19T14:47:30.118Z,15.50
2019-02-19T14:50:09.439Z,12.90
2019-02-19T14:52:39.564Z,17.63
2019-02-19T14:55:27.976Z,14.47
2019-02-19T14:57:58.117Z,16.30
2019-02-19T15:00:44.663Z,15.57
2019-02-19T15:03:23.863Z,16.55
2019-02-19T15:06:10.224Z,16.27
2019-02-19T15:08:40.381Z,15.67
2019-02-19T15:11:19.101Z,18.20
2019-02-19T15:13:55.005Z,13.13
2019-02-19T15:16:30.979Z,14.73
2019-02-19T15:19:10.121Z,17.03
2019-02-19T15:24:36.390Z,16.57
2019-02-19T15:27:12.198Z,17.27
2019-02-19T15:29:45.017Z,13.10
2019-02-19T15:32:31.607Z,14.80
2019-02-19T15:35:17.815Z,15.20
2019-02-19T15:37:53.712Z,14.90
2019-02-19T15:40:35.736Z,15.63
2019-02-19T15:43:05.919Z,13.40
2019-02-19T15:45:54.226Z,15.63
2019-02-19T15:48:40.882Z,13.63
2019-02-19T15:51:23.011Z,13.93
2019-02-19T15:53:58.797Z,14.23
2019-02-19T15:59:40.268Z,11.63
2019-02-19T16:02:10.389Z,13.57
2019-02-19T16:04:40.518Z,12.33
2019-02-19T16:07:19.261Z,12.10
2019-02-19T16:10:05.297Z,15.27
2019-02-19T16:12:47.455Z,11.03
2019-02-19T16:15:17.581Z,12.50
2019-02-19T16:18:02.570Z,23.37
2019-02-19T16:20:35.641Z,13.80
2019-02-19T16:23:08.780Z,10.97
2019-02-19T16:25:50.802Z,10.70
2019-02-19T16:28:30.164Z,12.03
2019-02-19T16:31:03.023Z,14.63
2019-02-19T16:33:41.638Z,14.20
2019-02-19T16:36:11.885Z,12.50
2019-02-19T16:38:44.805Z,14.87
2019-02-19T16:41:18.089Z,11.33
2019-02-19T16:43:48.229Z,12.23
2019-02-19T16:46:18.345Z,14.97
2019-02-19T16:48:57.859Z,14.73
2019-02-19T16:51:28.001Z,10.30
2019-02-19T16:54:04.072Z,11.17
2019-02-19T16:56:34.192Z,13.60
2019-02-19T16:59:20.417Z,11.87
2019-02-19T17:01:53.308Z,11.13
2019-02-19T17:04:39.435Z,11.67
2019-02-19T17:07:21.877Z,10.87
2019-02-19T17:09:52.026Z,10.53
2019-02-19T17:12:27.892Z,13.10
2019-02-19T17:15:09.951Z,10.60
2019-02-19T17:17:40.051Z,9.87
2019-02-19T17:20:21.292Z,13.43
2019-02-19T17:22:47.612Z,17.70
2019-02-19T17:25:17.760Z,13.97
2019-02-19T17:27:47.878Z,13.00
2019-02-19T17:30:30.195Z,10.17
2019-02-19T17:33:00.314Z,10.90
2019-02-19T17:35:30.437Z,8.57
2019-02-19T17:38:00.553Z,13.40
2019-02-19T17:40:46.901Z,9.23
2019-02-19T17:43:25.854Z,8.50
2019-02-19T17:46:07.974Z,8.00
2019-02-19T17:48:47.327Z,11.07
2019-02-19T17:51:26.761Z,8.87
2019-02-19T17:54:11.983Z,9.03
2019-02-19T17:56:54.446Z,10.33
2019-02-19T17:59:32.131Z,7.40
2019-02-19T18:02:02.280Z,5.77
2019-02-19T18:04:34.869Z,9.23
2019-02-19T18:07:04.999Z,6.93
2019-02-19T18:09:40.706Z,13.57
2019-02-19T18:14:56.536Z,12.93
2019-02-19T18:17:29.495Z,9.13
2019-02-19T18:19:57.956Z,6.50
2019-02-19T18:22:26.456Z,8.00
2019-02-19T18:24:54.928Z,8.27
2019-02-19T18:27:23.409Z,6.20
2019-02-19T18:29:51.866Z,9.03
2019-02-19T18:32:20.347Z,6.90
2019-02-19T18:34:48.802Z,6.30
2019-02-19T18:37:17.308Z,11.67
2019-02-19T18:39:45.781Z,8.27
2019-02-19T18:42:14.284Z,7.90
2019-02-19T18:44:42.749Z,5.63
2019-02-19T18:47:11.261Z,7.30
2019-02-19T18:49:39.852Z,5.33
2019-02-19T18:52:08.344Z,10.07
2019-02-19T18:54:36.837Z,11.17
2019-02-19T18:57:06.908Z,8.00
2019-02-19T18:59:35.412Z,12.43
2019-02-19T19:02:03.920Z,7.17
2019-02-19T19:04:32.446Z,7.00
2019-02-19T19:07:00.932Z,9.67
2019-02-19T19:09:29.403Z,7.10
2019-02-19T19:11:57.894Z,7.67
2019-02-19T19:14:26.365Z,6.30
2019-02-19T19:16:54.858Z,5.33
2019-02-19T19:19:23.329Z,6.90
2019-02-19T19:21:51.828Z,10.87
2019-02-19T19:24:23.310Z,7.97
2019-02-19T19:26:51.882Z,6.73
2019-02-19T19:29:20.513Z,10.90
2019-02-19T19:31:49.578Z,10.73
2019-02-19T19:34:18.072Z,11.30
2019-02-19T19:36:46.540Z,8.60
2019-02-19T19:39:15.012Z,8.70
2019-02-19T19:41:43.489Z,13.43
2019-02-19T19:44:11.987Z,10.77
2019-02-19T19:46:40.524Z,12.70
2019-02-19T19:49:09.035Z,10.27
2019-02-19T19:51:37.499Z,4.33
2019-02-19T19:54:06.000Z,6.33
2019-02-19T19:56:34.458Z,8.00
2019-02-19T19:59:02.958Z,8.43
2019-02-19T20:01:31.423Z,6.73
2019-02-19T20:03:59.902Z,6.93
2019-02-19T20:06:28.372Z,8.70
2019-02-19T20:08:56.872Z,8.00
2019-02-19T20:11:25.332Z,7.63
2019-02-19T20:13:53.830Z,5.63
2019-02-19T20:16:22.313Z,5.83
2019-02-19T20:18:50.791Z,6.67
2019-02-19T20:21:26.386Z,8.73
2019-02-19T20:23:50.157Z,7.03
2019-02-19T20:26:18.661Z,5.70
2019-02-19T20:28:47.150Z,6.57
2019-02-19T20:31:15.623Z,6.40
2019-02-19T20:33:44.126Z,7.23
2019-02-19T20:36:12.614Z,6.33
2019-02-19T20:38:41.104Z,8.83
2019-02-19T20:41:09.579Z,8.63
2019-02-19T20:43:38.081Z,8.30
2019-02-19T20:46:06.577Z,5.90
2019-02-19T20:48:35.066Z,7.57
2019-02-19T20:51:03.545Z,12.20
2019-02-19T20:53:32.034Z,7.80
2019-02-19T20:56:00.504Z,8.33
2019-02-19T20:58:29.024Z,9.00
2019-02-19T21:00:57.466Z,8.90
2019-02-19T21:03:25.963Z,8.90
2019-02-19T21:05:54.470Z,9.13
2019-02-19T21:08:22.919Z,11.90
2019-02-19T21:10:51.382Z,8.97
2019-02-19T21:13:19.883Z,11.40
2019-02-19T21:15:48.362Z,9.60
2019-02-19T21:18:23.440Z,7.93
2019-02-19T21:20:53.205Z,8.10
2019-02-19T21:23:21.673Z,8.67
2019-02-19T21:25:50.172Z,9.10
2019-02-19T21:28:39.684Z,8.37
2019-02-19T21:31:08.181Z,9.77
2019-02-19T21:33:36.695Z,7.27
2019-02-19T21:36:05.177Z,7.53
2019-02-19T21:38:33.674Z,9.17
2019-02-19T21:41:02.157Z,7.97
2019-02-19T21:43:30.702Z,9.27
2019-02-19T21:45:59.188Z,8.63
2019-02-19T21:48:27.675Z,5.90
2019-02-19T21:50:56.206Z,7.20
2019-02-19T21:53:24.637Z,8.93
2019-02-19T21:55:53.112Z,6.43
2019-02-19T21:58:21.625Z,5.47
2019-02-19T22:00:50.112Z,9.27
2019-02-19T22:03:18.600Z,7.60
2019-02-19T22:05:47.095Z,8.93
2019-02-19T22:08:15.602Z,7.17
2019-02-19T22:10:44.052Z,7.13
2019-02-19T22:13:12.621Z,5.63
2019-02-19T22:15:41.097Z,8.83
2019-02-19T22:18:09.554Z,7.60
2019-02-19T22:20:45.405Z,6.03
2019-02-19T22:23:13.918Z,5.43
2019-02-19T22:25:42.446Z,9.20
2019-02-19T22:28:10.992Z,3.97
2019-02-19T22:30:39.469Z,5.73
2019-02-19T22:33:07.965Z,5.87
2019-02-19T22:35:36.502Z,4.10
2019-02-19T22:38:04.977Z,4.93
2019-02-19T22:40:33.469Z,5.97
2019-02-19T22:43:01.949Z,4.87
2019-02-19T22:45:30.465Z,6.43
2019-02-19T22:47:58.933Z,5.33
2019-02-19T22:50:27.430Z,7.20
2019-02-19T22:52:55.960Z,6.27
2019-02-19T22:55:42.209Z,7.57
2019-02-19T22:58:10.825Z,7.43
2019-02-19T23:00:49.791Z,6.30
2019-02-19T23:03:27.886Z,7.40
2019-02-19T23:05:56.371Z,5.63
2019-02-19T23:08:24.996Z,7.27
2019-02-19T23:10:53.473Z,8.20
2019-02-19T23:13:21.944Z,9.17
2019-02-19T23:15:50.500Z,9.50
2019-02-19T23:18:18.958Z,7.27
2019-02-19T23:20:47.641Z,6.87
2019-02-19T23:23:16.084Z,9.50
2019-02-19T23:25:44.640Z,10.43
2019-02-19T23:28:13.121Z,9.07
2019-02-19T23:30:41.623Z,10.67
2019-02-19T23:33:10.104Z,12.30
2019-02-19T23:35:43.201Z,8.83
2019-02-19T23:38:11.724Z,10.53
2019-02-19T23:40:40.206Z,7.30
2019-02-19T23:43:08.709Z,10.80
2019-02-19T23:45:37.272Z,10.30
2019-02-19T23:48:05.736Z,10.83
2019-02-19T23:50:34.241Z,12.20
2019-02-19T23:53:02.716Z,11.47
2019-02-19T23:55:31.236Z,12.33
2019-02-19T23:57:59.763Z,12.73
